Time;durP1;ratioP1;P1;durP2;ratioP2;P2;SDS_P1;SDS_P2;PMS_P1;PMS_P2;Temp;Humidity;BMP_temperature;BMP_pressure;BME280_temperature;BME280_humidity;BME280_pressure;Samples;Min_cycle;Max_cycle;Signal;HPM_P1;HPM_P2
2023/03/10 00:01:10;;;;;;;2.03;1.20;;;;;;;-141.59;100.00;61776.25;5083442;28;20237;-86
2023/03/10 00:03:37;;;;;;;1.93;1.40;;;;;;;-141.59;100.00;61776.25;5080637;28;20210;-87
2023/03/10 00:06:05;;;;;;;2.70;1.30;;;;;;;-141.59;100.00;61776.25;5076176;28;20193;-87
2023/03/10 00:08:32;;;;;;;2.90;1.20;;;;;;;-141.59;100.00;61776.25;5082764;28;20212;-88
2023/03/10 00:11:00;;;;;;;3.60;1.33;;;;;;;-141.59;100.00;61776.25;5090415;28;20220;-86
2023/03/10 00:13:28;;;;;;;1.93;1.20;;;;;;;-141.59;100.00;61776.25;5076876;28;20231;-85
2023/03/10 00:15:55;;;;;;;1.47;1.10;;;;;;;-141.59;100.00;61776.25;5082459;28;20226;-85
2023/03/10 00:18:23;;;;;;;1.60;1.23;;;;;;;-141.59;100.00;61776.25;5087985;28;20200;-85
2023/03/10 00:20:51;;;;;;;1.77;1.20;;;;;;;-141.59;100.00;61776.25;5081895;28;20227;-86
2023/03/10 00:23:18;;;;;;;2.70;1.37;;;;;;;-141.59;100.00;61776.25;5082704;28;20228;-85
2023/03/10 00:25:45;;;;;;;2.60;1.40;;;;;;;-141.59;100.00;61776.25;5084728;28;20232;-85
2023/03/10 00:28:13;;;;;;;2.70;1.20;;;;;;;-141.59;100.00;61776.25;5083639;28;20206;-86
2023/03/10 00:30:41;;;;;;;2.37;1.10;;;;;;;-141.59;100.00;61776.25;5089401;28;20671;-85
2023/03/10 00:33:08;;;;;;;5.13;1.27;;;;;;;-141.59;100.00;61776.25;5076277;28;20296;-85
2023/03/10 00:35:36;;;;;;;1.67;1.10;;;;;;;-141.59;100.00;61776.25;5085575;28;20257;-86
2023/03/10 00:38:03;;;;;;;3.23;1.37;;;;;;;-141.59;100.00;61776.25;5086173;28;20211;-87
2023/03/10 00:40:30;;;;;;;4.60;1.77;;;;;;;-141.59;100.00;61776.25;5079298;28;20230;-87
2023/03/10 00:42:58;;;;;;;2.63;1.37;;;;;;;-141.59;100.00;61776.25;5079257;28;20235;-86
2023/03/10 00:45:25;;;;;;;2.30;1.30;;;;;;;-141.59;100.00;61776.25;5082635;28;20200;-86
2023/03/10 00:47:54;;;;;;;2.33;1.23;;;;;;;-141.59;100.00;61776.25;5075165;28;20228;-87
2023/03/10 00:50:21;;;;;;;4.03;1.40;;;;;;;-141.59;100.00;61776.25;5075466;28;20204;-85
2023/03/10 00:52:50;;;;;;;4.40;1.40;;;;;;;-141.59;100.00;61776.25;5077540;28;20211;-85
2023/03/10 00:55:17;;;;;;;3.23;1.20;;;;;;;-141.59;100.00;61776.25;5076757;28;20254;-85
2023/03/10 00:57:44;;;;;;;3.20;1.30;;;;;;;-141.59;100.00;61776.25;5073437;28;20306;-84
2023/03/10 01:00:14;;;;;;;1.90;1.10;;;;;;;-141.59;100.00;61776.25;5084253;28;20193;-82
2023/03/10 01:02:42;;;;;;;1.80;1.13;;;;;;;-141.59;100.00;61776.25;5072936;28;20221;-84
2023/03/10 01:05:11;;;;;;;1.80;1.23;;;;;;;-141.59;100.00;61776.25;5086754;28;20291;-86
2023/03/10 01:07:38;;;;;;;2.83;1.30;;;;;;;-141.59;100.00;61776.25;5075509;28;20200;-86
2023/03/10 01:10:07;;;;;;;1.63;1.10;;;;;;;-141.59;100.00;61776.25;5079746;28;20192;-84
2023/03/10 01:12:34;;;;;;;1.70;1.27;;;;;;;-141.59;100.00;61776.25;5077110;28;20200;-84
2023/03/10 01:15:01;;;;;;;3.97;1.60;;;;;;;-141.59;100.00;61776.25;5079771;28;20248;-85
2023/03/10 01:17:28;;;;;;;1.90;1.50;;;;;;;-141.59;100.00;61776.25;5086784;28;20218;-85
2023/03/10 01:19:56;;;;;;;2.67;1.27;;;;;;;-141.59;100.00;61776.25;5079271;28;20200;-85
2023/03/10 01:22:24;;;;;;;5.97;1.57;;;;;;;-141.59;100.00;61776.25;5081814;28;20261;-86
2023/03/10 01:24:51;;;;;;;2.50;1.50;;;;;;;-141.59;100.00;61776.25;5083883;28;20315;-84
2023/03/10 01:27:19;;;;;;;3.27;1.47;;;;;;;-141.59;100.00;61776.25;5076524;28;20205;-84
2023/03/10 01:29:46;;;;;;;2.43;1.60;;;;;;;-141.59;100.00;61776.25;5086096;28;20195;-87
2023/03/10 01:32:13;;;;;;;3.63;1.50;;;;;;;-141.59;100.00;61776.25;5081361;28;20204;-86
2023/03/10 01:34:40;;;;;;;2.30;1.67;;;;;;;-141.59;100.00;61776.25;5078174;28;20205;-86
2023/03/10 01:37:08;;;;;;;2.63;1.30;;;;;;;-141.59;100.00;61776.25;5081161;28;20201;-88
2023/03/10 01:39:36;;;;;;;2.17;1.60;;;;;;;-141.59;100.00;61776.25;5083184;28;20239;-88
2023/03/10 01:42:07;;;;;;;3.83;1.30;;;;;;;-141.59;100.00;61776.25;5081561;28;20255;-86
2023/03/10 01:44:34;;;;;;;3.00;1.40;;;;;;;-141.59;100.00;61776.25;5077391;28;20212;-87
2023/03/10 01:47:01;;;;;;;2.10;1.30;;;;;;;-141.59;100.00;61776.25;5086366;28;20196;-86
2023/03/10 01:49:39;;;;;;;3.73;1.40;;;;;;;-141.59;100.00;61776.25;5088982;28;20204;-87
2023/03/10 01:52:12;;;;;;;3.17;1.40;;;;;;;-141.59;100.00;61776.25;5082668;28;20227;-87
2023/03/10 01:54:48;;;;;;;1.00;0.90;;;;;;;-141.59;100.00;61776.25;5079619;28;20204;-87
2023/03/10 01:57:19;;;;;;;1.70;1.03;;;;;;;-141.59;100.00;61776.25;5095980;27;20200;-86
2023/03/10 01:59:47;;;;;;;3.27;1.00;;;;;;;-141.59;100.00;61776.25;5084406;27;20205;-85
2023/03/10 02:02:16;;;;;;;1.80;1.13;;;;;;;-141.59;100.00;61776.25;5085430;28;20311;-87
2023/03/10 02:04:47;;;;;;;1.80;1.10;;;;;;;-141.59;100.00;61776.25;5084167;28;20206;-86
2023/03/10 02:07:17;;;;;;;0.80;0.80;;;;;;;-141.59;100.00;61776.25;5080726;28;20345;-86
2023/03/10 02:09:49;;;;;;;2.27;1.20;;;;;;;-141.59;100.00;61776.25;5080244;28;20455;-87
2023/03/10 02:12:17;;;;;;;1.13;0.97;;;;;;;-141.59;100.00;61776.25;5088530;28;20224;-87
2023/03/10 02:14:47;;;;;;;1.37;0.90;;;;;;;-141.59;100.00;61776.25;5077962;28;20252;-86
2023/03/10 02:17:16;;;;;;;1.87;1.20;;;;;;;-141.59;100.00;61776.25;5084504;28;20199;-85
2023/03/10 02:20:00;;;;;;;2.30;0.93;;;;;;;-141.59;100.00;61776.25;5082035;28;20253;-84
2023/03/10 02:22:29;;;;;;;3.37;1.43;;;;;;;-141.59;100.00;61776.25;5080147;28;20314;-83
2023/03/10 02:25:08;;;;;;;2.00;1.10;;;;;;;-141.59;100.00;61776.25;5080342;28;20197;-85
2023/03/10 02:27:39;;;;;;;2.67;0.97;;;;;;;-141.59;100.00;61776.25;5088141;28;20291;-86
2023/03/10 02:30:10;;;;;;;1.77;1.10;;;;;;;-141.59;100.00;61776.25;5089701;28;20200;-86
2023/03/10 02:32:54;;;;;;;1.70;1.10;;;;;;;-141.59;100.00;61776.25;5087384;28;20204;-85
2023/03/10 02:35:23;;;;;;;1.43;0.90;;;;;;;-141.59;100.00;61776.25;5089309;28;20192;-86
2023/03/10 02:37:55;;;;;;;2.43;1.10;;;;;;;-141.59;100.00;61776.25;5085544;28;20234;-86
2023/03/10 02:40:36;;;;;;;1.07;0.97;;;;;;;-141.59;100.00;61776.25;5092029;28;20216;-85
2023/03/10 02:43:16;;;;;;;1.57;0.90;;;;;;;-141.59;100.00;61776.25;5087565;28;20225;-85
2023/03/10 02:45:46;;;;;;;1.57;1.20;;;;;;;-141.59;100.00;61776.25;5075220;28;20224;-87
2023/03/10 02:48:18;;;;;;;1.50;1.20;;;;;;;-141.59;100.00;61776.25;5080375;28;20247;-87
2023/03/10 02:50:47;;;;;;;2.07;1.00;;;;;;;-141.59;100.00;61776.25;5083781;28;20209;-87
2023/03/10 02:53:17;;;;;;;2.43;0.90;;;;;;;-141.59;100.00;61776.25;5082317;28;20203;-88
2023/03/10 02:55:45;;;;;;;3.33;1.13;;;;;;;-141.59;100.00;61776.25;5084490;28;20221;-86
2023/03/10 02:58:15;;;;;;;1.57;1.20;;;;;;;-141.59;100.00;61776.25;5083648;28;20233;-88
2023/03/10 03:00:45;;;;;;;4.53;1.20;;;;;;;-141.59;100.00;61776.25;5077494;28;20204;-87
2023/03/10 03:03:15;;;;;;;2.87;1.10;;;;;;;-141.59;100.00;61776.25;5079503;28;20227;-86
2023/03/10 03:05:43;;;;;;;1.90;0.87;;;;;;;-141.59;100.00;61776.25;5093114;28;20258;-86
2023/03/10 03:08:10;;;;;;;1.83;1.20;;;;;;;-141.59;100.00;61776.25;5078129;28;20208;-87
2023/03/10 03:10:39;;;;;;;1.30;1.10;;;;;;;-141.59;100.00;61776.25;5087931;28;20264;-88
2023/03/10 03:13:08;;;;;;;1.10;0.93;;;;;;;-141.59;100.00;61776.25;5100275;28;20258;-88
2023/03/10 03:15:37;;;;;;;3.20;1.40;;;;;;;-141.59;100.00;61776.25;5075367;28;20228;-87
2023/03/10 03:18:05;;;;;;;1.70;1.17;;;;;;;-141.59;100.00;61776.25;5078992;28;20201;-85
2023/03/10 03:20:36;;;;;;;1.60;1.17;;;;;;;-141.59;100.00;61776.25;5083688;28;20204;-85
2023/03/10 03:23:03;;;;;;;1.17;1.00;;;;;;;-141.59;100.00;61776.25;5073091;28;20226;-85
2023/03/10 03:25:35;;;;;;;0.93;0.93;;;;;;;-141.59;100.00;61776.25;5084880;28;20220;-85
2023/03/10 03:28:02;;;;;;;1.97;1.03;;;;;;;-141.59;100.00;61776.25;5078438;28;20200;-85
2023/03/10 03:30:30;;;;;;;2.13;1.10;;;;;;;-141.59;100.00;61776.25;5079476;28;20199;-86
2023/03/10 03:33:02;;;;;;;3.67;1.20;;;;;;;-141.59;100.00;61776.25;5085602;28;20200;-86
2023/03/10 03:35:32;;;;;;;3.10;1.40;;;;;;;-141.59;100.00;61776.25;5075450;28;20288;-85
2023/03/10 03:37:59;;;;;;;2.20;1.10;;;;;;;-141.59;100.00;61776.25;5072925;28;20201;-85
2023/03/10 03:40:29;;;;;;;3.33;1.50;;;;;;;-141.59;100.00;61776.25;5075870;28;20243;-85
2023/03/10 03:42:57;;;;;;;1.80;1.13;;;;;;;-141.59;100.00;61776.25;5090407;28;20240;-84
2023/03/10 03:45:26;;;;;;;3.77;1.37;;;;;;;-141.59;100.00;61776.25;5075907;28;20211;-84
2023/03/10 03:47:55;;;;;;;2.47;1.43;;;;;;;-141.59;100.00;61776.25;5079493;28;20238;-84
2023/03/10 03:50:25;;;;;;;2.07;1.40;;;;;;;-141.59;100.00;61776.25;5079494;28;20207;-84
2023/03/10 03:52:55;;;;;;;2.23;1.10;;;;;;;-141.59;100.00;61776.25;5086218;28;20216;-86
2023/03/10 03:55:26;;;;;;;2.43;1.27;;;;;;;-141.59;100.00;61776.25;5088253;28;20253;-85
2023/03/10 03:57:53;;;;;;;4.43;1.10;;;;;;;-141.59;100.00;61776.25;5080848;28;20230;-86
2023/03/10 04:00:23;;;;;;;5.10;1.60;;;;;;;-141.59;100.00;61776.25;5083557;28;20222;-86
2023/03/10 04:02:58;;;;;;;2.00;1.40;;;;;;;-141.59;100.00;61776.25;5081907;28;20216;-85
2023/03/10 04:05:27;;;;;;;2.97;1.50;;;;;;;-141.59;100.00;61776.25;5077887;28;20229;-89
2023/03/10 04:07:55;;;;;;;2.30;1.30;;;;;;;-141.59;100.00;61776.25;5084830;28;20204;-87
2023/03/10 04:10:23;;;;;;;1.63;1.40;;;;;;;-141.59;100.00;61776.25;5085189;28;20193;-86
2023/03/10 04:12:50;;;;;;;2.17;1.40;;;;;;;-141.59;100.00;61776.25;5085101;28;20205;-84
2023/03/10 04:15:17;;;;;;;2.17;1.30;;;;;;;-141.59;100.00;61776.25;5087458;28;20215;-84
2023/03/10 04:17:45;;;;;;;1.73;1.40;;;;;;;-141.59;100.00;61776.25;5082227;28;20212;-83
2023/03/10 04:20:13;;;;;;;1.40;1.30;;;;;;;-141.59;100.00;61776.25;5077033;28;20209;-84
2023/03/10 04:22:44;;;;;;;1.30;1.20;;;;;;;-141.59;100.00;61776.25;5084578;28;20226;-86
2023/03/10 04:25:13;;;;;;;4.47;1.37;;;;;;;-141.59;100.00;61776.25;5081770;28;20193;-85
2023/03/10 04:27:42;;;;;;;4.57;1.30;;;;;;;-141.59;100.00;61776.25;5082768;28;20223;-86
2023/03/10 04:30:12;;;;;;;1.40;1.10;;;;;;;-141.59;100.00;61776.25;5087867;28;20233;-86
2023/03/10 04:32:41;;;;;;;3.27;1.40;;;;;;;-141.59;100.00;61776.25;5082376;28;20197;-85
2023/03/10 04:35:12;;;;;;;2.83;1.27;;;;;;;-141.59;100.00;61776.25;5082205;28;20196;-84
2023/03/10 04:37:40;;;;;;;1.77;1.37;;;;;;;-141.59;100.00;61776.25;5082307;28;20265;-85
2023/03/10 04:40:13;;;;;;;1.60;1.20;;;;;;;-141.59;100.00;61776.25;5077114;28;20243;-85
2023/03/10 04:42:41;;;;;;;6.47;1.50;;;;;;;-141.59;100.00;61776.25;5085398;28;20204;-87
2023/03/10 04:45:09;;;;;;;2.83;1.30;;;;;;;-141.59;100.00;61776.25;5087870;28;20204;-86
2023/03/10 04:47:37;;;;;;;3.10;1.57;;;;;;;-141.59;100.00;61776.25;5090166;28;20236;-86
2023/03/10 04:50:05;;;;;;;3.00;1.30;;;;;;;-141.59;100.00;61776.25;5079673;28;20207;-87
2023/03/10 04:52:32;;;;;;;3.30;1.30;;;;;;;-141.59;100.00;61776.25;5090807;28;20209;-87
2023/03/10 04:54:59;;;;;;;4.00;1.67;;;;;;;-141.59;100.00;61776.25;5087126;28;20200;-87
2023/03/10 04:57:28;;;;;;;4.67;1.93;;;;;;;-141.59;100.00;61776.25;5090397;28;20197;-85
2023/03/10 04:59:55;;;;;;;1.50;1.10;;;;;;;-141.59;100.00;61776.25;5086203;28;20197;-85
2023/03/10 05:02:23;;;;;;;6.03;1.63;;;;;;;-141.59;100.00;61776.25;5084365;28;20193;-85
2023/03/10 05:04:51;;;;;;;2.17;1.33;;;;;;;-141.59;100.00;61776.25;5089406;28;20251;-87
2023/03/10 05:07:18;;;;;;;3.80;1.40;;;;;;;-141.59;100.00;61776.25;5084820;28;20212;-85
2023/03/10 05:09:48;;;;;;;2.67;1.40;;;;;;;-141.59;100.00;61776.25;5072157;28;20235;-87
2023/03/10 05:12:15;;;;;;;2.70;1.40;;;;;;;-141.59;100.00;61776.25;5076689;28;20204;-87
2023/03/10 05:14:44;;;;;;;2.83;1.60;;;;;;;-141.59;100.00;61776.25;5082827;28;20270;-86
2023/03/10 05:17:12;;;;;;;6.07;1.57;;;;;;;-141.59;100.00;61776.25;5083710;28;20200;-86
2023/03/10 05:19:39;;;;;;;2.07;1.37;;;;;;;-141.59;100.00;61776.25;5088643;28;20253;-86
2023/03/10 05:22:10;;;;;;;1.97;1.10;;;;;;;-141.59;100.00;61776.25;5080185;28;20258;-86
2023/03/10 05:24:37;;;;;;;14.87;8.27;;;;;;;-141.59;100.00;61776.25;5082368;28;20261;-86
2023/03/10 05:27:07;;;;;;;18.67;12.83;;;;;;;-141.59;100.00;61776.25;5087796;28;20231;-85
2023/03/10 05:29:37;;;;;;;18.10;11.53;;;;;;;-141.59;100.00;61776.25;5077566;28;20197;-85
2023/03/10 05:32:13;;;;;;;19.43;12.40;;;;;;;-141.59;100.00;61776.25;5083288;28;20203;-84
2023/03/10 05:34:41;;;;;;;12.60;9.60;;;;;;;-141.59;100.00;61776.25;5085282;28;20204;-86
2023/03/10 05:37:08;;;;;;;12.17;9.40;;;;;;;-141.59;100.00;61776.25;5079940;28;20237;-85
2023/03/10 05:39:36;;;;;;;12.90;7.63;;;;;;;-141.59;100.00;61776.25;5093400;28;20255;-85
2023/03/10 05:42:08;;;;;;;6.70;4.73;;;;;;;-141.59;100.00;61776.25;5087203;28;20212;-86
2023/03/10 05:44:37;;;;;;;10.37;4.17;;;;;;;-141.59;100.00;61776.25;5079753;28;20233;-85
2023/03/10 05:47:06;;;;;;;3.80;3.13;;;;;;;-141.59;100.00;61776.25;5088927;28;20235;-85
2023/03/10 05:49:36;;;;;;;4.87;2.93;;;;;;;-141.59;100.00;61776.25;5083731;28;20203;-85
2023/03/10 05:52:03;;;;;;;3.60;2.00;;;;;;;-141.59;100.00;61776.25;5087095;28;20211;-85
2023/03/10 05:54:30;;;;;;;2.20;1.70;;;;;;;-141.59;100.00;61776.25;5091366;28;20232;-85
2023/03/10 05:56:58;;;;;;;2.17;1.30;;;;;;;-141.59;100.00;61776.25;5076975;28;20201;-85
2023/03/10 05:59:28;;;;;;;2.20;1.43;;;;;;;-141.59;100.00;61776.25;5083026;28;20209;-85
2023/03/10 06:01:55;;;;;;;2.93;1.47;;;;;;;-141.59;100.00;61776.25;5087333;28;20253;-85
2023/03/10 06:04:22;;;;;;;3.73;1.73;;;;;;;-141.59;100.00;61776.25;5091373;28;20216;-85
2023/03/10 06:06:51;;;;;;;3.70;1.77;;;;;;;-141.59;100.00;61776.25;5093912;28;20200;-83
2023/03/10 06:09:18;;;;;;;5.03;1.80;;;;;;;-141.59;100.00;61776.25;5089173;28;20203;-83
2023/03/10 06:11:45;;;;;;;3.57;2.00;;;;;;;-141.59;100.00;61776.25;5088218;27;20296;-83
2023/03/10 06:14:12;;;;;;;3.57;1.70;;;;;;;-141.59;100.00;61776.25;5089498;28;20221;-82
2023/03/10 06:16:39;;;;;;;2.03;1.77;;;;;;;-141.59;100.00;61776.25;5081506;28;20239;-81
2023/03/10 06:19:07;;;;;;;4.33;2.03;;;;;;;-141.59;100.00;61776.25;5080153;27;20372;-82
2023/03/10 06:21:34;;;;;;;4.10;1.93;;;;;;;-141.59;100.00;61776.25;5082957;28;20269;-81
2023/03/10 06:24:02;;;;;;;2.50;2.00;;;;;;;-141.59;100.00;61776.25;5080350;28;20213;-81
2023/03/10 06:26:30;;;;;;;2.67;1.70;;;;;;;-141.59;100.00;61776.25;5078681;28;20209;-81
2023/03/10 06:28:57;;;;;;;3.87;1.50;;;;;;;-141.59;100.00;61776.25;5091456;27;20219;-81
2023/03/10 06:31:24;;;;;;;3.57;1.80;;;;;;;-141.59;100.00;61776.25;5084936;28;20212;-82
2023/03/10 06:33:52;;;;;;;3.77;1.80;;;;;;;-141.59;100.00;61776.25;5077904;28;20232;-82
2023/03/10 06:36:22;;;;;;;7.27;1.70;;;;;;;-141.59;100.00;61776.25;5083164;28;20204;-81
2023/03/10 06:38:49;;;;;;;1.90;1.57;;;;;;;-141.59;100.00;61776.25;5084004;28;20248;-80
2023/03/10 06:41:19;;;;;;;2.63;1.97;;;;;;;-141.59;100.00;61776.25;5093858;28;20224;-81
2023/03/10 06:43:47;;;;;;;3.63;2.53;;;;;;;-141.59;100.00;61776.25;5083903;28;20284;-81
2023/03/10 06:46:14;;;;;;;9.53;3.20;;;;;;;-141.59;100.00;61776.25;5088172;28;20233;-80
2023/03/10 06:48:42;;;;;;;5.13;4.63;;;;;;;-141.59;100.00;61776.25;5084390;28;20327;-83
2023/03/10 06:51:14;;;;;;;6.33;3.27;;;;;;;-141.59;100.00;61776.25;5094311;28;20224;-83
2023/03/10 06:53:41;;;;;;;7.50;3.20;;;;;;;-141.59;100.00;61776.25;5088169;28;20201;-84
2023/03/10 06:56:11;;;;;;;6.40;2.23;;;;;;;-141.59;100.00;61776.25;5081598;28;20212;-83
2023/03/10 06:58:41;;;;;;;10.07;2.60;;;;;;;-141.59;100.00;61776.25;5088131;28;20215;-85
2023/03/10 07:01:09;;;;;;;5.93;2.10;;;;;;;-141.59;100.00;61776.25;5089208;28;20287;-84
2023/03/10 07:03:36;;;;;;;2.07;1.70;;;;;;;-141.59;100.00;61776.25;5081358;28;20227;-83
2023/03/10 07:06:04;;;;;;;4.93;2.30;;;;;;;-141.59;100.00;61776.25;5088100;28;20328;-84
2023/03/10 07:08:31;;;;;;;3.63;1.80;;;;;;;-141.59;100.00;61776.25;5093258;28;20200;-83
2023/03/10 07:10:58;;;;;;;3.67;1.60;;;;;;;-141.59;100.00;61776.25;5085343;28;20206;-82
2023/03/10 07:13:25;;;;;;;7.80;2.27;;;;;;;-141.59;100.00;61776.25;5089527;28;20227;-82
2023/03/10 07:15:54;;;;;;;2.70;1.33;;;;;;;-141.59;100.00;61776.25;5077152;28;20211;-82
2023/03/10 07:18:21;;;;;;;7.27;1.80;;;;;;;-141.59;100.00;61776.25;5086801;28;20193;-83
2023/03/10 07:20:51;;;;;;;7.33;2.17;;;;;;;-141.59;100.00;61776.25;5087558;28;20208;-84
2023/03/10 07:23:19;;;;;;;3.90;2.03;;;;;;;-141.59;100.00;61776.25;5080250;28;20265;-83
2023/03/10 07:25:46;;;;;;;5.13;1.87;;;;;;;-141.59;100.00;61776.25;5082728;28;20337;-85
2023/03/10 07:28:14;;;;;;;5.07;2.20;;;;;;;-141.59;100.00;61776.25;5077551;28;20258;-85
2023/03/10 07:30:41;;;;;;;2.90;1.60;;;;;;;-141.59;100.00;61776.25;5082666;28;20243;-85
2023/03/10 07:33:10;;;;;;;4.57;1.70;;;;;;;-141.59;100.00;61776.25;5076418;28;20200;-84
2023/03/10 07:35:40;;;;;;;3.37;1.90;;;;;;;-141.59;100.00;61776.25;5079495;28;20219;-84
2023/03/10 07:38:07;;;;;;;2.63;1.83;;;;;;;-141.59;100.00;61776.25;5086945;28;20200;-84
2023/03/10 07:40:34;;;;;;;3.50;1.67;;;;;;;-141.59;100.00;61776.25;5088020;28;20336;-84
2023/03/10 07:43:02;;;;;;;6.23;1.97;;;;;;;-141.59;100.00;61776.25;5077949;28;20192;-84
2023/03/10 07:45:33;;;;;;;3.47;1.43;;;;;;;-141.59;100.00;61776.25;5079060;28;20225;-84
2023/03/10 07:48:00;;;;;;;5.33;1.80;;;;;;;-141.59;100.00;61776.25;5085509;28;20224;-84
2023/03/10 07:50:29;;;;;;;2.60;1.67;;;;;;;-141.59;100.00;61776.25;5090401;28;20231;-84
2023/03/10 07:52:56;;;;;;;2.13;1.63;;;;;;;-141.59;100.00;61776.25;5091135;28;20196;-84
2023/03/10 07:55:24;;;;;;;3.10;1.90;;;;;;;-141.59;100.00;61776.25;5077881;28;20205;-83
2023/03/10 07:57:51;;;;;;;2.53;1.33;;;;;;;-141.59;100.00;61776.25;5098376;28;20209;-84
2023/03/10 08:00:18;;;;;;;2.10;1.77;;;;;;;-141.59;100.00;61776.25;5077907;28;20227;-85
2023/03/10 08:02:46;;;;;;;4.60;1.80;;;;;;;-141.59;100.00;61776.25;5087546;28;20288;-84
2023/03/10 08:05:14;;;;;;;3.63;2.03;;;;;;;-141.59;100.00;61776.25;5087784;28;20226;-86
2023/03/10 08:07:44;;;;;;;4.43;1.80;;;;;;;-141.59;100.00;61776.25;5085280;28;20207;-84
2023/03/10 08:10:12;;;;;;;4.20;1.70;;;;;;;-141.59;100.00;61776.25;5077048;27;20208;-84
2023/03/10 08:12:40;;;;;;;5.27;2.00;;;;;;;-141.59;100.00;61776.25;5071794;28;20292;-84
2023/03/10 08:15:08;;;;;;;1.43;1.33;;;;;;;-141.59;100.00;61776.25;5081046;28;20228;-83
2023/03/10 08:17:35;;;;;;;3.33;1.40;;;;;;;-141.59;100.00;61776.25;5087772;28;20212;-87
2023/03/10 08:20:05;;;;;;;2.03;1.33;;;;;;;-141.59;100.00;61776.25;5081926;28;20697;-86
2023/03/10 08:22:32;;;;;;;8.13;1.40;;;;;;;-141.59;100.00;61776.25;5100944;28;20197;-82
2023/03/10 08:25:01;;;;;;;2.00;1.40;;;;;;;-141.59;100.00;61776.25;5088241;28;20227;-81
2023/03/10 08:27:29;;;;;;;1.70;1.60;;;;;;;-141.59;100.00;61776.25;5087876;28;20210;-84
2023/03/10 08:29:56;;;;;;;1.30;1.20;;;;;;;-141.59;100.00;61776.25;5073151;28;20305;-87
2023/03/10 08:32:23;;;;;;;1.40;1.30;;;;;;;-141.59;100.00;61776.25;5081275;28;20224;-88
2023/03/10 08:34:50;;;;;;;1.27;1.17;;;;;;;-141.59;100.00;61776.25;5081427;28;20196;-87
2023/03/10 08:37:17;;;;;;;1.73;1.20;;;;;;;-141.59;100.00;61776.25;5074044;28;20204;-86
2023/03/10 08:39:45;;;;;;;0.90;0.90;;;;;;;-141.59;100.00;61776.25;5083757;28;20205;-85
2023/03/10 08:42:14;;;;;;;0.80;0.80;;;;;;;-141.59;100.00;61776.25;5088010;28;20204;-85
2023/03/10 08:44:41;;;;;;;0.70;0.70;;;;;;;-141.59;100.00;61776.25;5082218;28;20208;-85
2023/03/10 08:47:08;;;;;;;2.90;1.70;;;;;;;-141.59;100.00;61776.25;5082831;28;20235;-85
2023/03/10 08:49:36;;;;;;;1.27;0.93;;;;;;;-141.59;100.00;61776.25;5080349;28;20204;-84
2023/03/10 08:52:03;;;;;;;0.93;0.90;;;;;;;-141.59;100.00;61776.25;5083304;28;20203;-84
2023/03/10 08:54:31;;;;;;;1.20;0.93;;;;;;;-141.59;100.00;61776.25;5088586;28;20202;-85
2023/03/10 08:56:58;;;;;;;0.80;0.80;;;;;;;-141.59;100.00;61776.25;5090679;28;20211;-85
2023/03/10 08:59:27;;;;;;;1.23;1.13;;;;;;;-141.59;100.00;61776.25;5091515;28;20272;-85
2023/03/10 09:01:54;;;;;;;6.57;3.53;;;;;;;-141.59;100.00;61776.25;5096468;28;20196;-85
2023/03/10 09:04:22;;;;;;;1.73;1.40;;;;;;;-141.59;100.00;61776.25;5090991;28;20212;-85
2023/03/10 09:06:49;;;;;;;1.40;0.90;;;;;;;-141.59;100.00;61776.25;5097531;28;20189;-84
2023/03/10 09:09:16;;;;;;;1.87;1.10;;;;;;;-141.59;100.00;61776.25;5087182;27;20200;-84
2023/03/10 09:11:44;;;;;;;1.00;0.90;;;;;;;-141.59;100.00;61776.25;5092229;27;20203;-85
2023/03/10 09:14:15;;;;;;;1.10;1.00;;;;;;;-141.59;100.00;61776.25;5089790;27;20225;-85
2023/03/10 09:16:43;;;;;;;0.60;0.60;;;;;;;-141.59;100.00;61776.25;5082440;28;20206;-85
2023/03/10 09:19:11;;;;;;;1.60;0.80;;;;;;;-141.59;100.00;61776.25;5084153;27;20203;-84
2023/03/10 09:21:41;;;;;;;1.10;0.70;;;;;;;-141.59;100.00;61776.25;5089079;28;20288;-84
2023/03/10 09:24:09;;;;;;;1.20;0.70;;;;;;;-141.59;100.00;61776.25;5087829;28;20254;-85
2023/03/10 09:26:36;;;;;;;0.70;0.70;;;;;;;-141.59;100.00;61776.25;5104651;28;20204;-85
2023/03/10 09:29:03;;;;;;;0.60;0.60;;;;;;;-141.59;100.00;61776.25;5081421;28;20201;-85
2023/03/10 09:31:33;;;;;;;1.00;1.00;;;;;;;-141.59;100.00;61776.25;5088306;28;20249;-85
2023/03/10 09:34:01;;;;;;;7.03;1.37;;;;;;;-141.59;100.00;61776.25;5095383;28;20206;-86
2023/03/10 09:36:29;;;;;;;1.40;0.80;;;;;;;-141.59;100.00;61776.25;5095234;28;20211;-85
2023/03/10 09:38:57;;;;;;;1.60;1.00;;;;;;;-141.59;100.00;61776.25;5087806;28;20223;-85
2023/03/10 09:41:53;;;;;;;2.20;0.97;;;;;;;-141.59;100.00;61776.25;5085788;27;20214;-84
2023/03/10 09:44:30;;;;;;;1.53;0.80;;;;;;;-141.59;100.00;61776.25;5079511;28;20201;-85
2023/03/10 09:47:12;;;;;;;2.77;0.70;;;;;;;-141.59;100.00;61776.25;5078643;28;20208;-85
2023/03/10 09:49:48;;;;;;;2.17;0.90;;;;;;;-141.59;100.00;61776.25;5096484;28;20219;-85
2023/03/10 09:52:24;;;;;;;2.67;1.00;;;;;;;-141.59;100.00;61776.25;5088252;28;20192;-85
2023/03/10 09:54:58;;;;;;;0.80;0.80;;;;;;;-141.59;100.00;61776.25;5090618;28;20293;-85
2023/03/10 09:57:26;;;;;;;4.17;1.20;;;;;;;-141.59;100.00;61776.25;5091321;28;20211;-85
2023/03/10 09:59:58;;;;;;;2.30;1.10;;;;;;;-141.59;100.00;61776.25;5087785;28;20216;-86
2023/03/10 10:02:30;;;;;;;1.07;0.93;;;;;;;-141.59;100.00;61776.25;5088978;28;20215;-85
2023/03/10 10:05:03;;;;;;;5.53;1.10;;;;;;;-141.59;100.00;61776.25;5089419;28;20225;-85
2023/03/10 10:07:41;;;;;;;1.40;1.07;;;;;;;-141.59;100.00;61776.25;5090363;28;20204;-85
2023/03/10 10:10:17;;;;;;;8.93;4.80;;;;;;;-141.59;100.00;61776.25;5101225;28;20214;-86
2023/03/10 10:12:44;;;;;;;2.20;1.70;;;;;;;-141.59;100.00;61776.25;5087730;28;20212;-85
2023/03/10 10:15:17;;;;;;;1.43;1.17;;;;;;;-141.59;100.00;61776.25;5084075;28;20281;-85
2023/03/10 10:18:00;;;;;;;3.27;1.00;;;;;;;-141.59;100.00;61776.25;5088707;28;20215;-86
2023/03/10 10:20:33;;;;;;;1.13;1.03;;;;;;;-141.59;100.00;61776.25;5082157;28;20212;-86
2023/03/10 10:23:00;;;;;;;0.90;0.90;;;;;;;-141.59;100.00;61776.25;5074461;28;20228;-86
2023/03/10 10:25:31;;;;;;;2.33;1.13;;;;;;;-141.59;100.00;61776.25;5075868;28;20224;-85
2023/03/10 10:28:01;;;;;;;1.53;1.20;;;;;;;-141.59;100.00;61776.25;5088489;28;20208;-84
2023/03/10 10:30:34;;;;;;;1.63;1.20;;;;;;;-141.59;100.00;61776.25;5090517;28;20197;-85
2023/03/10 10:33:03;;;;;;;2.40;1.20;;;;;;;-141.59;100.00;61776.25;5087233;28;20208;-86
2023/03/10 10:35:34;;;;;;;2.70;1.10;;;;;;;-141.59;100.00;61776.25;5075905;28;20323;-85
2023/03/10 10:38:05;;;;;;;3.30;1.00;;;;;;;-141.59;100.00;61776.25;5076088;28;20307;-85
2023/03/10 10:40:36;;;;;;;2.23;1.20;;;;;;;-141.59;100.00;61776.25;5094549;28;20200;-84
2023/03/10 10:43:06;;;;;;;2.03;1.20;;;;;;;-141.59;100.00;61776.25;5079349;28;20208;-85
2023/03/10 10:45:36;;;;;;;5.77;1.30;;;;;;;-141.59;100.00;61776.25;5082280;28;20231;-85
2023/03/10 10:48:04;;;;;;;2.73;1.10;;;;;;;-141.59;100.00;61776.25;5085350;28;20243;-85
2023/03/10 10:50:34;;;;;;;0.80;0.80;;;;;;;-141.59;100.00;61776.25;5093073;28;20200;-85
2023/03/10 10:53:23;;;;;;;1.00;0.80;;;;;;;-141.59;100.00;61776.25;5085354;28;20201;-84
2023/03/10 10:56:01;;;;;;;1.50;0.97;;;;;;;-141.59;100.00;61776.25;5075301;28;20211;-85
2023/03/10 10:58:32;;;;;;;1.63;0.90;;;;;;;-141.59;100.00;61776.25;5087472;27;20232;-85
2023/03/10 11:01:02;;;;;;;5.40;1.20;;;;;;;-141.59;100.00;61776.25;5079894;28;20211;-84
2023/03/10 11:03:31;;;;;;;2.97;1.10;;;;;;;-141.59;100.00;61776.25;5076734;28;20254;-85
2023/03/10 11:06:01;;;;;;;1.43;1.10;;;;;;;-141.59;100.00;61776.25;5079094;28;20212;-85
2023/03/10 11:08:33;;;;;;;2.50;1.17;;;;;;;-141.59;100.00;61776.25;5077826;28;20223;-84
2023/03/10 11:11:08;;;;;;;1.30;1.20;;;;;;;-141.59;100.00;61776.25;5081537;28;20197;-85
2023/03/10 11:13:55;;;;;;;4.70;1.67;;;;;;;-141.59;100.00;61776.25;5095033;28;20215;-84
2023/03/10 11:16:28;;;;;;;1.30;1.10;;;;;;;-141.59;100.00;61776.25;5071562;28;20222;-85
2023/03/10 11:19:01;;;;;;;0.70;0.70;;;;;;;-141.59;100.00;61776.25;5079672;28;20309;-84